Time;durP1;ratioP1;P1;durP2;ratioP2;P2;SDS_P1;SDS_P2;PMS_P1;PMS_P2;Temp;Humidity;BMP_temperature;BMP_pressure;BME280_temperature;BME280_humidity;BME280_pressure;Samples;Min_cycle;Max_cycle;Signal;HPM_P1;HPM_P2
2022/12/15 00:39:10;;;;;;;75.80;57.07;;;11.80;55.20;;;;;;4943197;28;85361;-53
2022/12/15 00:41:36;;;;;;;76.00;56.80;;;11.80;55.40;;;;;;4944251;28;86973;-52
2022/12/15 00:44:02;;;;;;;76.83;57.83;;;11.70;55.30;;;;;;4934622;28;85042;-52
2022/12/15 01:22:05;;;;;;;74.40;56.67;;;11.50;54.90;;;;;;4933612;28;84900;-53
2022/12/15 01:24:31;;;;;;;74.20;56.83;;;11.50;55.10;;;;;;4931722;28;90686;-53
2022/12/15 01:26:57;;;;;;;75.23;57.77;;;11.50;55.00;;;;;;4940081;28;85501;-51
2022/12/15 01:29:23;;;;;;;76.23;57.97;;;11.50;54.90;;;;;;4927357;28;86555;-49
2022/12/15 01:31:48;;;;;;;74.50;56.27;;;11.40;55.00;;;;;;4933565;28;85490;-51
2022/12/15 01:34:16;;;;;;;73.13;56.20;;;11.40;55.10;;;;;;4931908;28;85903;-53
2022/12/15 01:36:41;;;;;;;73.63;56.47;;;11.40;55.20;;;;;;4933181;28;85199;-52
2022/12/15 01:39:07;;;;;;;74.47;56.83;;;11.40;55.60;;;;;;4936862;28;84832;-52
2022/12/15 01:41:38;;;;;;;74.87;57.13;;;11.40;54.90;;;;;;4926435;28;86527;-50
2022/12/15 01:44:22;;;;;;;75.35;57.70;;;11.40;54.80;;;;;;4930746;28;85136;-49
2022/12/15 01:46:51;;;;;;;75.23;57.10;;;11.40;54.80;;;;;;4927396;28;85397;-52
2022/12/15 01:49:22;;;;;;;74.03;56.20;;;11.40;54.90;;;;;;4930094;28;85067;-53
2022/12/15 01:51:53;;;;;;;72.33;55.97;;;11.40;54.90;;;;;;4929999;28;85583;-49
2022/12/15 01:54:23;;;;;;;78.00;57.47;;;11.40;54.90;;;;;;4922395;28;85502;-52
2022/12/15 01:56:53;;;;;;;74.07;55.90;;;11.30;54.80;;;;;;4929505;28;85627;-50
2022/12/15 01:59:26;;;;;;;72.57;56.23;;;11.30;54.90;;;;;;4930532;28;84854;-49
2022/12/15 02:01:51;;;;;;;71.20;55.73;;;11.30;54.90;;;;;;4919934;28;87202;-52
2022/12/15 02:04:19;;;;;;;71.73;56.27;;;11.20;54.90;;;;;;4928642;28;84894;-53
2022/12/15 02:06:45;;;;;;;73.37;56.10;;;11.20;54.80;;;;;;4925959;28;85178;-52
2022/12/15 02:09:11;;;;;;;73.07;55.70;;;11.20;55.00;;;;;;4928802;28;84711;-51
2022/12/15 02:11:45;;;;;;;71.83;56.07;;;11.20;54.80;;;;;;4929364;28;87628;-52
2022/12/15 02:14:19;;;;;;;73.97;56.27;;;11.20;55.00;;;;;;4927463;28;90421;-52
2022/12/15 02:16:51;;;;;;;71.90;55.23;;;11.10;54.80;;;;;;4946303;28;84866;-49
2022/12/15 02:19:35;;;;;;;;;;;11.20;54.90;;;;;;4933197;28;84977;-53
2022/12/15 02:22:27;;;;;;;70.43;54.97;;;11.30;54.70;;;;;;4937427;28;85297;-52
2022/12/15 02:25:14;;;;;;;70.75;55.08;;;11.30;54.60;;;;;;4936578;28;84486;-51
2022/12/15 02:28:03;;;;;;;73.20;55.30;;;11.30;54.50;;;;;;4938084;28;85007;-50
2022/12/15 02:33:56;;;;;;;72.60;55.47;;;11.20;54.70;;;;;;4927660;28;86024;-53
2022/12/15 02:36:34;;;;;;;72.13;56.37;;;11.10;54.50;;;;;;4939483;28;85355;-51
2022/12/15 02:39:00;;;;;;;73.70;56.00;;;11.20;54.60;;;;;;4923674;28;85226;-50
2022/12/15 02:41:44;;;;;;;71.23;55.13;;;11.10;54.70;;;;;;4929533;28;89512;-49
2022/12/15 02:44:23;;;;;;;73.97;54.87;;;11.10;54.60;;;;;;4932872;28;84873;-49
2022/12/15 02:47:07;;;;;;;70.80;55.57;;;11.10;54.50;;;;;;4923485;28;85972;-51
2022/12/15 02:49:54;;;;;;;72.07;55.77;;;11.10;54.50;;;;;;4924998;28;88227;-51
2022/12/15 02:52:19;;;;;;;71.30;55.60;;;11.10;54.60;;;;;;4929125;28;87322;-49
2022/12/15 02:55:14;;;;;;;70.83;55.23;;;11.10;54.60;;;;;;4936192;28;85008;-50
2022/12/15 02:58:05;;;;;;;71.03;55.33;;;11.10;54.60;;;;;;4928127;28;85627;-49
2022/12/15 03:00:37;;;;;;;72.77;56.50;;;11.00;54.60;;;;;;4931616;28;85317;-53
2022/12/15 03:03:03;;;;;;;70.70;54.53;;;11.10;54.70;;;;;;4938695;28;86695;-53
2022/12/15 03:05:30;;;;;;;72.67;55.23;;;11.10;54.50;;;;;;4935681;28;84672;-51
2022/12/15 03:07:56;;;;;;;71.80;55.17;;;11.00;54.50;;;;;;4923971;28;85785;-51
2022/12/15 03:10:24;;;;;;;69.73;54.80;;;11.00;54.60;;;;;;4931372;28;87084;-53
2022/12/15 03:12:50;;;;;;;71.07;54.77;;;11.00;54.70;;;;;;4936027;28;85191;-51
2022/12/15 03:15:17;;;;;;;71.00;55.13;;;11.00;54.50;;;;;;4937515;28;85389;-49
2022/12/15 03:17:42;;;;;;;71.27;54.67;;;11.00;54.60;;;;;;4932044;28;85438;-53
2022/12/15 03:20:09;;;;;;;72.40;55.27;;;11.00;54.50;;;;;;4942430;28;85650;-53
2022/12/15 03:22:35;;;;;;;70.20;54.23;;;10.90;54.80;;;;;;4932524;28;85177;-53
2022/12/15 03:25:01;;;;;;;69.10;54.47;;;11.00;54.60;;;;;;4946126;28;84588;-54
2022/12/15 03:27:27;;;;;;;69.83;54.13;;;11.00;54.60;;;;;;4938549;28;86097;-53
2022/12/15 03:29:53;;;;;;;72.33;55.17;;;11.00;54.50;;;;;;4940681;28;89223;-51
2022/12/15 03:32:18;;;;;;;69.47;53.73;;;11.00;54.50;;;;;;4939140;28;84929;-53
2022/12/15 03:34:44;;;;;;;69.23;54.27;;;10.90;54.30;;;;;;4933511;28;85686;-51
2022/12/15 03:37:10;;;;;;;70.67;54.80;;;10.90;54.40;;;;;;4932743;28;85708;-49
2022/12/15 03:39:36;;;;;;;68.43;54.53;;;10.90;54.40;;;;;;4941926;28;85272;-53
2022/12/15 03:42:01;;;;;;;70.13;54.30;;;10.80;54.40;;;;;;4957788;28;89735;-50
2022/12/15 03:44:27;;;;;;;70.97;54.67;;;10.90;54.50;;;;;;4935357;28;86811;-54
2022/12/15 03:46:52;;;;;;;71.97;55.53;;;10.80;54.60;;;;;;4924043;28;84781;-51
2022/12/15 03:49:18;;;;;;;67.37;53.83;;;10.90;54.50;;;;;;4931781;28;84402;-52
2022/12/15 03:51:44;;;;;;;72.17;55.40;;;10.80;54.40;;;;;;4930984;28;84724;-50
2022/12/15 03:54:12;;;;;;;70.77;54.80;;;10.80;54.40;;;;;;4935083;28;87693;-51
2022/12/15 03:56:38;;;;;;;67.60;53.90;;;10.70;54.60;;;;;;4934438;28;88114;-52
2022/12/15 03:59:03;;;;;;;68.17;54.17;;;10.80;54.60;;;;;;4936366;28;84891;-51
2022/12/15 04:01:31;;;;;;;69.83;55.50;;;10.80;54.60;;;;;;4924337;28;85523;-50
2022/12/15 04:03:58;;;;;;;69.93;54.07;;;10.70;54.60;;;;;;4929640;28;85754;-53
2022/12/15 04:06:23;;;;;;;71.73;54.30;;;10.80;54.50;;;;;;4941526;28;85440;-50
2022/12/15 04:08:49;;;;;;;68.53;54.70;;;10.80;54.50;;;;;;4924308;28;88145;-49
2022/12/15 04:11:16;;;;;;;70.97;54.17;;;10.70;54.60;;;;;;4933610;28;84850;-50
2022/12/15 04:13:42;;;;;;;69.93;55.13;;;10.70;54.50;;;;;;4930298;28;84805;-53
2022/12/15 04:16:07;;;;;;;69.17;54.03;;;10.70;54.50;;;;;;4938163;28;89359;-49
2022/12/15 04:18:34;;;;;;;69.10;54.00;;;10.70;54.30;;;;;;4930762;28;86568;-53
2022/12/15 04:20:59;;;;;;;69.20;54.20;;;10.70;54.80;;;;;;4946423;28;84328;-52
2022/12/15 04:23:25;;;;;;;70.67;55.20;;;10.70;54.40;;;;;;4930637;28;84606;-52
2022/12/15 05:31:57;;;;;;;68.77;54.80;;;10.70;53.50;;;;;;4928198;28;89441;-52
2022/12/15 05:34:25;;;;;;;70.37;54.73;;;10.70;53.70;;;;;;4920547;28;87329;-53
2022/12/15 05:36:51;;;;;;;69.00;54.43;;;10.70;53.60;;;;;;4934746;28;85857;-52
2022/12/15 05:39:18;;;;;;;68.87;54.73;;;10.70;53.70;;;;;;4928330;28;84988;-50
2022/12/15 05:41:44;;;;;;;70.93;54.67;;;10.60;53.80;;;;;;4930462;28;84833;-48
2022/12/15 05:44:10;;;;;;;72.20;54.77;;;10.60;53.70;;;;;;4924133;28;84686;-52
2022/12/15 05:46:36;;;;;;;74.00;54.47;;;10.60;53.70;;;;;;4945067;28;87676;-49
2022/12/15 05:49:04;;;;;;;69.97;53.67;;;10.60;53.70;;;;;;4934767;28;85533;-49
2022/12/15 05:51:29;;;;;;;72.27;54.73;;;10.60;53.60;;;;;;4934528;28;84576;-50
2022/12/15 05:53:55;;;;;;;69.50;54.70;;;10.60;53.60;;;;;;4922476;28;86253;-49
2022/12/15 05:56:21;;;;;;;71.10;54.93;;;10.60;53.70;;;;;;4931046;28;84714;-49
2022/12/15 05:58:46;;;;;;;72.20;54.47;;;10.50;53.60;;;;;;4928139;28;85501;-53
2022/12/15 06:01:15;;;;;;;71.17;55.70;;;10.60;53.70;;;;;;4921450;28;86290;-50
2022/12/15 06:03:42;;;;;;;72.57;55.40;;;10.60;53.70;;;;;;4926240;28;87961;-50
2022/12/15 06:06:09;;;;;;;71.57;55.13;;;10.70;53.70;;;;;;4936236;28;84808;-53
2022/12/15 06:08:37;;;;;;;70.87;55.00;;;10.60;53.90;;;;;;4927798;28;86411;-51
2022/12/15 06:11:03;;;;;;;79.60;55.83;;;10.50;54.50;;;;;;4929429;28;85901;-49
2022/12/15 06:13:33;;;;;;;71.20;54.30;;;10.50;55.00;;;;;;4939427;28;84811;-50
2022/12/15 06:16:05;;;;;;;74.90;55.17;;;10.50;55.50;;;;;;4932335;28;85942;-51
2022/12/15 06:18:37;;;;;;;79.97;55.13;;;10.50;55.40;;;;;;4947305;28;85640;-50
2022/12/15 06:21:09;;;;;;;72.17;55.27;;;10.50;55.30;;;;;;4942222;28;84857;-53
2022/12/15 06:23:35;;;;;;;82.20;55.27;;;10.50;55.20;;;;;;4932294;28;84527;-49
2022/12/15 06:26:19;;;;;;;72.60;55.23;;;10.40;55.10;;;;;;4933926;28;85176;-51
2022/12/15 06:28:45;;;;;;;75.00;55.73;;;10.10;55.40;;;;;;4926753;28;85367;-52
2022/12/15 06:31:12;;;;;;;70.53;55.37;;;10.10;55.60;;;;;;4928421;28;89619;-52
2022/12/15 06:33:38;;;;;;;74.43;54.77;;;10.10;55.50;;;;;;4917941;28;86770;-51
2022/12/15 06:36:06;;;;;;;72.60;54.63;;;10.20;55.50;;;;;;4921652;28;90624;-49
2022/12/15 06:38:33;;;;;;;75.07;56.43;;;10.30;55.50;;;;;;4927734;28;85643;-48
2022/12/15 06:40:59;;;;;;;74.30;54.80;;;10.30;55.40;;;;;;4932927;28;85204;-50
2022/12/15 06:43:26;;;;;;;76.10;56.33;;;10.30;55.30;;;;;;4931247;28;85053;-50
2022/12/15 06:45:52;;;;;;;75.20;55.87;;;10.30;55.20;;;;;;4935358;28;84863;-50
2022/12/15 06:48:18;;;;;;;73.07;55.67;;;10.30;55.00;;;;;;4935251;28;90628;-52
2022/12/15 06:50:44;;;;;;;74.23;55.00;;;10.40;54.60;;;;;;4929943;28;85670;-50
2022/12/15 06:53:12;;;;;;;83.03;54.63;;;10.40;54.70;;;;;;4933683;28;84635;-50
2022/12/15 06:55:37;;;;;;;81.13;55.87;;;10.50;54.30;;;;;;4923026;28;84989;-53
2022/12/15 06:58:03;;;;;;;73.67;55.70;;;10.40;54.40;;;;;;4936347;28;86976;-51
2022/12/15 07:00:29;;;;;;;73.00;54.20;;;10.50;54.60;;;;;;4958957;28;86399;-54
2022/12/15 07:02:54;;;;;;;76.20;55.07;;;10.60;54.40;;;;;;4927464;28;86337;-54
2022/12/15 07:05:21;;;;;;;71.07;54.30;;;10.60;54.30;;;;;;4936984;28;85212;-50
2022/12/15 07:07:47;;;;;;;73.07;54.73;;;10.70;54.30;;;;;;4931570;28;86528;-51
2022/12/15 07:10:13;;;;;;;74.93;55.50;;;10.70;54.10;;;;;;4944121;28;85293;-50
2022/12/15 07:12:38;;;;;;;78.33;57.03;;;10.70;54.00;;;;;;4930176;28;87594;-53
2022/12/15 07:15:04;;;;;;;70.27;54.07;;;10.80;54.20;;;;;;4932602;28;86561;-53
2022/12/15 07:17:30;;;;;;;71.70;54.23;;;10.80;53.90;;;;;;4944226;28;85441;-52
2022/12/15 07:19:56;;;;;;;74.70;54.77;;;10.80;53.80;;;;;;4933218;28;85933;-55
2022/12/15 07:22:21;;;;;;;76.00;58.60;;;10.80;53.80;;;;;;4936863;28;84979;-49
2022/12/15 07:24:47;;;;;;;76.33;57.77;;;10.80;53.80;;;;;;4936180;28;87064;-52
2022/12/15 07:27:13;;;;;;;79.07;57.67;;;10.80;53.70;;;;;;4932354;28;85434;-54
2022/12/15 07:29:39;;;;;;;76.67;56.70;;;10.80;53.80;;;;;;4928023;28;85352;-51
2022/12/15 07:32:05;;;;;;;74.30;56.93;;;10.90;53.60;;;;;;4935077;28;87096;-49
2022/12/15 07:34:30;;;;;;;80.37;57.43;;;10.90;53.70;;;;;;4929905;28;85750;-49
2022/12/15 07:36:56;;;;;;;79.00;57.13;;;11.00;53.50;;;;;;4939037;28;85320;-50
2022/12/15 07:39:21;;;;;;;78.97;56.40;;;11.10;53.30;;;;;;4936937;28;84985;-49
2022/12/15 07:41:47;;;;;;;80.00;58.63;;;11.10;53.10;;;;;;4936895;28;86417;-54
2022/12/15 07:44:13;;;;;;;75.13;56.33;;;11.10;53.10;;;;;;4930600;28;86475;-51
2022/12/15 07:46:39;;;;;;;78.53;57.20;;;11.10;53.10;;;;;;4930869;28;85320;-50
2022/12/15 07:49:05;;;;;;;77.60;57.37;;;11.20;53.00;;;;;;4931549;28;85784;-53
2022/12/15 07:51:30;;;;;;;83.07;57.17;;;11.10;52.90;;;;;;4937320;28;86383;-53
2022/12/15 07:53:56;;;;;;;77.87;56.40;;;11.20;52.90;;;;;;4930257;28;85043;-51
2022/12/15 07:56:22;;;;;;;79.70;57.60;;;11.20;52.80;;;;;;4930541;28;90242;-50
2022/12/15 07:58:48;;;;;;;84.20;60.67;;;11.20;52.70;;;;;;4935059;28;85738;-51
2022/12/15 08:01:15;;;;;;;80.13;59.93;;;11.20;52.80;;;;;;4935427;28;86642;-52
2022/12/15 08:03:41;;;;;;;84.80;60.07;;;11.10;52.80;;;;;;4933624;28;87090;-51
2022/12/15 08:06:09;;;;;;;82.03;59.33;;;11.20;52.80;;;;;;4930663;28;89844;-53
2022/12/15 08:08:34;;;;;;;86.33;59.23;;;11.20;52.40;;;;;;4927326;28;89314;-51
2022/12/15 08:11:11;;;;;;;84.53;60.43;;;11.20;52.50;;;;;;4928774;28;90434;-51
2022/12/15 08:13:37;;;;;;;82.90;60.63;;;11.30;52.50;;;;;;4939215;28;90827;-49
2022/12/15 08:16:03;;;;;;;81.70;59.30;;;11.40;52.20;;;;;;4926161;28;91130;-50
2022/12/15 08:18:28;;;;;;;76.00;57.90;;;11.40;52.10;;;;;;4937260;28;91098;-49
2022/12/15 08:20:55;;;;;;;80.43;58.53;;;11.40;51.90;;;;;;4929507;28;89713;-51
2022/12/15 08:23:20;;;;;;;80.83;58.53;;;11.50;51.90;;;;;;4934063;28;90591;-50
2022/12/15 08:25:46;;;;;;;81.07;59.37;;;11.50;51.70;;;;;;4918346;28;91511;-50
2022/12/15 08:28:12;;;;;;;80.90;58.73;;;11.60;51.70;;;;;;4936402;28;90376;-51
2022/12/15 08:30:38;;;;;;;81.63;58.03;;;11.60;52.10;;;;;;4927296;28;89713;-53
2022/12/15 08:33:03;;;;;;;77.87;57.50;;;11.70;51.40;;;;;;4933111;28;89710;-50
2022/12/15 08:35:29;;;;;;;85.27;58.57;;;11.70;51.60;;;;;;4935266;28;91441;-52
2022/12/15 08:37:55;;;;;;;83.77;57.83;;;11.60;51.60;;;;;;4925551;28;90495;-50
2022/12/15 08:40:20;;;;;;;80.60;57.53;;;11.70;51.40;;;;;;4930530;28;91551;-50
2022/12/15 08:42:46;;;;;;;79.50;57.80;;;11.70;51.30;;;;;;4919433;28;92374;-53
2022/12/15 08:45:12;;;;;;;81.53;58.53;;;11.70;51.40;;;;;;4935656;28;90342;-49
2022/12/15 08:47:38;;;;;;;76.73;57.90;;;11.80;51.20;;;;;;4924516;28;90677;-51
2022/12/15 08:50:07;;;;;;;78.23;57.57;;;11.80;51.40;;;;;;4923769;28;90271;-50
2022/12/15 08:52:33;;;;;;;80.53;57.93;;;11.80;51.30;;;;;;4922855;28;89340;-53
2022/12/15 08:54:59;;;;;;;81.60;57.93;;;11.80;51.40;;;;;;4917755;28;91974;-51
2022/12/15 08:57:26;;;;;;;80.80;58.33;;;11.80;51.60;;;;;;4933291;28;89931;-50
2022/12/15 08:59:51;;;;;;;82.33;59.63;;;11.90;51.50;;;;;;4929667;28;89660;-55
2022/12/15 09:02:17;;;;;;;81.37;56.90;;;11.90;51.70;;;;;;4933723;28;89349;-54
2022/12/15 09:04:44;;;;;;;76.07;55.63;;;12.20;51.20;;;;;;4924868;28;90417;-52
2022/12/15 09:07:10;;;;;;;83.87;58.17;;;12.40;50.80;;;;;;4923390;28;94832;-51
2022/12/15 09:09:35;;;;;;;80.50;57.83;;;12.40;50.50;;;;;;4926546;28;90060;-49
2022/12/15 09:12:01;;;;;;;98.87;59.53;;;12.50;50.10;;;;;;4929923;28;89767;-54
2022/12/15 09:14:27;;;;;;;83.30;58.87;;;12.50;49.80;;;;;;4928537;28;90242;-51
2022/12/15 09:16:52;;;;;;;81.60;58.85;;;12.60;49.70;;;;;;4918953;28;92028;-52
2022/12/15 09:19:18;;;;;;;83.97;58.27;;;12.60;49.60;;;;;;4933901;28;89577;-55
2022/12/15 09:21:44;;;;;;;86.67;58.37;;;12.70;49.40;;;;;;4924615;28;91614;-52
2022/12/15 09:24:12;;;;;;;88.00;59.23;;;12.70;49.80;;;;;;4920755;28;89946;-52
2022/12/15 09:26:39;;;;;;;84.83;58.83;;;12.70;49.70;;;;;;4922177;28;90241;-52
2022/12/15 09:29:05;;;;;;;83.03;58.77;;;12.70;49.70;;;;;;4929378;28;90772;-51
2022/12/15 09:31:35;;;;;;;86.50;58.60;;;12.70;49.70;;;;;;4918567;28;92399;-50
2022/12/15 09:34:01;;;;;;;83.37;58.97;;;12.70;49.70;;;;;;4921874;28;90498;-51
2022/12/15 09:36:28;;;;;;;85.67;59.50;;;12.70;49.70;;;;;;4925503;28;90388;-53
2022/12/15 09:38:54;;;;;;;87.10;58.28;;;12.70;49.70;;;;;;4931250;28;90132;-53
2022/12/15 09:41:23;;;;;;;83.55;59.25;;;12.60;50.00;;;;;;4922307;28;89974;-54
2022/12/15 09:43:48;;;;;;;83.53;59.17;;;12.70;50.20;;;;;;4922658;28;89849;-53
2022/12/15 09:46:22;;;;;;;85.72;60.03;;;12.70;50.20;;;;;;4927852;28;88456;-57
2022/12/15 09:48:50;;;;;;;86.67;58.93;;;12.70;50.20;;;;;;4926257;28;89938;-50
2022/12/15 09:51:17;;;;;;;84.47;59.22;;;12.70;51.10;;;;;;4925351;28;89973;-53
2022/12/15 09:53:43;;;;;;;85.82;60.28;;;12.70;50.40;;;;;;4919801;28;91800;-52
2022/12/15 09:56:41;;;;;;;85.22;58.63;;;12.70;50.40;;;;;;4928545;28;91445;-49
2022/12/15 09:59:31;;;;;;;84.78;59.47;;;12.80;50.70;;;;;;4924162;28;93142;-49
2022/12/15 10:02:42;;;;;;;83.63;59.28;;;12.90;50.60;;;;;;4926646;28;89874;-52
2022/12/15 10:05:46;;;;;;;80.50;58.53;;;13.00;50.20;;;;;;4929510;28;89975;-51
2022/12/15 10:08:13;;;;;;;85.22;58.85;;;13.10;50.10;;;;;;4918428;28;90778;-55
2022/12/15 10:11:02;;;;;;;83.25;59.25;;;13.10;50.10;;;;;;4927354;28;89445;-51
2022/12/15 10:13:56;;;;;;;95.03;60.15;;;13.20;49.80;;;;;;4924411;28;89424;-49
2022/12/15 10:16:29;;;;;;;85.63;59.55;;;13.30;49.80;;;;;;4913145;28;94766;-56
2022/12/15 10:18:54;;;;;;;88.38;62.22;;;13.30;49.80;;;;;;4921609;28;90601;-53
2022/12/15 10:21:25;;;;;;;83.40;60.50;;;13.30;49.80;;;;;;4930353;28;91861;-58
2022/12/15 10:23:52;;;;;;;88.85;60.95;;;13.30;50.00;;;;;;4932076;28;89452;-53
2022/12/15 10:26:19;;;;;;;86.13;60.50;;;13.30;49.80;;;;;;4931097;28;91281;-49
2022/12/15 10:29:23;;;;;;;88.65;61.17;;;13.40;49.50;;;;;;4929362;28;90120;-52
2022/12/15 10:32:00;;;;;;;88.78;62.05;;;13.50;49.70;;;;;;4918809;28;90770;-54
2022/12/15 10:34:29;;;;;;;84.97;62.07;;;13.50;49.40;;;;;;4918512;28;90677;-53
2022/12/15 10:36:56;;;;;;;88.90;61.65;;;13.50;49.50;;;;;;4932160;28;94459;-51
2022/12/15 10:39:23;;;;;;;87.93;61.53;;;13.50;49.40;;;;;;4920300;28;95478;-49
2022/12/15 10:42:16;;;;;;;90.57;62.33;;;13.50;49.30;;;;;;4923037;28;89933;-49
2022/12/15 10:44:47;;;;;;;84.90;60.25;;;13.50;49.30;;;;;;4925028;28;93598;-54
2022/12/15 10:47:18;;;;;;;92.72;61.55;;;13.50;49.80;;;;;;4923670;28;91989;-53
2022/12/15 10:49:44;;;;;;;88.88;60.63;;;13.50;49.70;;;;;;4923429;28;90327;-51
2022/12/15 10:52:36;;;;;;;87.45;61.78;;;13.50;49.90;;;;;;4927904;28;89996;-51
2022/12/15 10:55:29;;;;;;;83.65;60.72;;;13.50;49.60;;;;;;4928154;28;90016;-51
2022/12/15 10:58:00;;;;;;;83.57;60.10;;;13.60;49.80;;;;;;4925542;28;90127;-56
2022/12/15 11:00:31;;;;;;;88.28;61.33;;;13.60;49.60;;;;;;4923289;28;90028;-51
2022/12/15 11:02:58;;;;;;;88.23;61.47;;;13.70;49.80;;;;;;4926106;28;89668;-50
2022/12/15 11:05:25;;;;;;;86.45;61.15;;;13.80;49.60;;;;;;4923004;28;91368;-50
2022/12/15 11:08:14;;;;;;;90.15;61.50;;;13.90;49.40;;;;;;4925568;28;90619;-48
2022/12/15 11:13:41;;;;;;;87.27;60.27;;;14.00;50.40;;;;;;4930580;28;90932;-47
2022/12/15 11:16:14;;;;;;;89.45;60.85;;;14.10;50.80;;;;;;4927446;28;90362;-49
2022/12/15 11:18:57;;;;;;;92.50;61.72;;;14.10;51.50;;;;;;4922527;28;90937;-50
2022/12/15 11:21:27;;;;;;;89.40;61.15;;;14.10;52.10;;;;;;4931290;28;89763;-47
2022/12/15 11:24:20;;;;;;;86.78;61.85;;;14.20;52.20;;;;;;4922550;28;91461;-48
2022/12/15 11:26:55;;;;;;;88.63;61.00;;;14.20;52.40;;;;;;4924668;28;89628;-50
2022/12/15 11:29:38;;;;;;;90.50;61.90;;;14.20;52.50;;;;;;4926192;28;91196;-51
2022/12/15 11:32:04;;;;;;;90.93;61.13;;;14.10;52.90;;;;;;4923618;28;89460;-48
2022/12/15 11:34:37;;;;;;;94.25;62.72;;;14.10;53.10;;;;;;4934057;28;89753;-49
2022/12/15 11:37:32;;;;;;;100.07;65.22;;;14.10;59.40;;;;;;4933680;28;89917;-49
2022/12/15 11:40:16;;;;;;;95.22;62.15;;;14.10;66.90;;;;;;4920455;28;92595;-47
2022/12/15 11:42:58;;;;;;;90.28;62.30;;;14.10;58.50;;;;;;4925362;28;93416;-50
2022/12/15 11:46:00;;;;;;;97.22;61.75;;;14.10;57.10;;;;;;4923968;28;91501;-52
2022/12/15 11:48:46;;;;;;;103.80;62.53;;;14.10;56.70;;;;;;4918059;28;89948;-47
2022/12/15 11:51:19;;;;;;;97.40;61.92;;;14.20;56.50;;;;;;4940675;28;89750;-48
2022/12/15 11:53:57;;;;;;;94.57;62.13;;;14.20;56.20;;;;;;4920006;28;90330;-50
2022/12/15 11:57:04;;;;;;;91.50;62.25;;;14.20;56.10;;;;;;4925237;28;90435;-53
2022/12/15 11:59:51;;;;;;;92.85;63.20;;;14.10;56.20;;;;;;4931327;28;88641;-48
2022/12/15 12:02:38;;;;;;;93.15;62.97;;;14.10;55.90;;;;;;4924067;28;89745;-48
2022/12/15 12:05:30;;;;;;;92.50;62.70;;;14.10;55.90;;;;;;4925150;28;91118;-49
2022/12/15 12:08:06;;;;;;;95.32;62.50;;;14.20;55.60;;;;;;4935666;28;90710;-47
2022/12/15 12:10:54;;;;;;;89.68;62.70;;;14.20;55.60;;;;;;4928505;28;89941;-47
2022/12/15 12:13:31;;;;;;;97.32;62.58;;;14.20;55.60;;;;;;4925951;28;89782;-49
2022/12/15 12:16:30;;;;;;;98.05;61.90;;;14.20;55.50;;;;;;4927223;28;90344;-51
2022/12/15 12:19:14;;;;;;;89.63;60.63;;;14.30;55.40;;;;;;4923374;28;90532;-48
2022/12/15 12:21:45;;;;;;;93.28;61.30;;;14.40;55.60;;;;;;4928936;28;89988;-52
2022/12/15 12:24:24;;;;;;;94.75;62.75;;;14.50;55.50;;;;;;4927001;28;90870;-51
2022/12/15 12:27:10;;;;;;;90.95;60.30;;;14.60;55.00;;;;;;4931027;28;89085;-48
2022/12/15 12:29:49;;;;;;;91.57;61.08;;;14.60;55.20;;;;;;4931635;28;89745;-50
2022/12/15 12:32:24;;;;;;;96.60;62.05;;;14.60;55.10;;;;;;4922689;28;90133;-53
2022/12/15 12:34:59;;;;;;;98.65;62.80;;;14.70;55.00;;;;;;4921864;28;91551;-53
2022/12/15 12:37:35;;;;;;;92.05;60.55;;;14.80;54.90;;;;;;4926280;28;90737;-51
2022/12/15 12:40:13;;;;;;;91.18;60.97;;;14.80;55.00;;;;;;4923830;28;95759;-48
2022/12/15 12:42:50;;;;;;;96.57;61.70;;;14.60;54.50;;;;;;4924049;28;91113;-51
2022/12/15 12:45:18;;;;;;;102.38;62.35;;;14.40;54.70;;;;;;4930349;28;90738;-48
2022/12/15 12:47:49;;;;;;;106.57;62.83;;;14.40;55.00;;;;;;4931802;28;89934;-50
2022/12/15 12:50:21;;;;;;;100.22;62.67;;;14.40;54.80;;;;;;4922786;28;90116;-52
2022/12/15 12:53:20;;;;;;;91.20;61.72;;;14.40;54.60;;;;;;4932730;28;89060;-56
2022/12/15 12:55:45;;;;;;;92.63;60.97;;;14.40;54.50;;;;;;4929523;28;89690;-53
2022/12/15 12:58:35;;;;;;;97.47;62.25;;;14.60;54.40;;;;;;4927570;28;90013;-51
2022/12/15 13:01:10;;;;;;;92.80;61.42;;;14.60;54.30;;;;;;4921578;28;90804;-49
2022/12/15 13:03:40;;;;;;;90.30;61.88;;;14.70;54.30;;;;;;4930080;28;90495;-54
2022/12/15 13:06:41;;;;;;;94.75;62.13;;;14.80;54.10;;;;;;4924071;28;92399;-49
2022/12/15 13:09:15;;;;;;;95.90;62.10;;;14.70;54.20;;;;;;4928420;28;90078;-49
2022/12/15 13:11:47;;;;;;;96.35;61.72;;;14.70;54.40;;;;;;4920468;28;91818;-51
2022/12/15 13:14:28;;;;;;;92.70;61.45;;;14.80;54.50;;;;;;4928435;28;96219;-48
2022/12/15 13:17:04;;;;;;;94.00;62.20;;;14.80;54.50;;;;;;4926877;28;91521;-50
2022/12/15 13:19:57;;;;;;;86.75;61.95;;;14.80;54.10;;;;;;4928728;28;90297;-49
2022/12/15 13:22:31;;;;;;;92.03;61.50;;;14.90;54.20;;;;;;4925595;28;89854;-50
2022/12/15 13:24:57;;;;;;;91.30;61.72;;;15.00;54.10;;;;;;4959869;28;90049;-48
2022/12/15 13:27:33;;;;;;;94.10;62.38;;;15.00;54.00;;;;;;4954707;28;92424;-54
2022/12/15 13:30:04;;;;;;;93.32;61.67;;;15.00;54.40;;;;;;4922811;28;90847;-51
2022/12/15 13:32:37;;;;;;;90.40;60.78;;;15.00;53.90;;;;;;4927145;28;89944;-53
2022/12/15 13:35:11;;;;;;;90.38;61.70;;;15.00;53.80;;;;;;4929325;28;93313;-51
2022/12/15 13:37:49;;;;;;;95.22;60.85;;;14.90;53.70;;;;;;4934271;28;89833;-50
2022/12/15 13:40:36;;;;;;;92.10;60.88;;;14.90;53.80;;;;;;4928161;28;89834;-52
2022/12/15 13:43:05;;;;;;;92.78;61.70;;;15.00;54.30;;;;;;4928781;28;89560;-58
2022/12/15 13:45:51;;;;;;;91.72;61.78;;;14.90;54.00;;;;;;4932058;28;89579;-56
2022/12/15 13:48:22;;;;;;;94.20;61.50;;;15.00;53.80;;;;;;4917330;28;95432;-52
2022/12/15 13:50:52;;;;;;;93.97;60.88;;;15.10;53.60;;;;;;4932023;28;91432;-59
2022/12/15 13:53:21;;;;;;;89.25;60.80;;;15.10;53.90;;;;;;4925606;28;94001;-49
2022/12/15 13:56:02;;;;;;;85.78;59.55;;;15.10;53.60;;;;;;4934634;28;90120;-53
2022/12/15 13:58:36;;;;;;;93.43;61.63;;;15.10;53.80;;;;;;4923799;28;93255;-55
2022/12/15 14:01:03;;;;;;;90.53;60.40;;;15.00;54.00;;;;;;4923892;28;90535;-50
2022/12/15 14:03:29;;;;;;;92.63;60.40;;;15.10;53.90;;;;;;4922312;28;92083;-49
2022/12/15 14:05:59;;;;;;;88.03;59.75;;;15.10;53.90;;;;;;4916881;28;89963;-49
2022/12/15 14:08:27;;;;;;;86.30;59.25;;;15.00;53.80;;;;;;4929863;28;92591;-49
2022/12/15 14:10:57;;;;;;;85.80;59.83;;;15.00;53.60;;;;;;4928895;28;92748;-50
2022/12/15 14:13:25;;;;;;;93.53;58.80;;;14.90;53.70;;;;;;4921746;28;90589;-50
2022/12/15 14:15:54;;;;;;;91.82;60.15;;;14.90;53.80;;;;;;4924649;28;90301;-49
2022/12/15 14:18:31;;;;;;;86.93;60.25;;;15.00;53.70;;;;;;4897979;28;97207;-57
2022/12/15 14:20:59;;;;;;;91.20;61.33;;;14.80;53.50;;;;;;4919481;28;91590;-48
2022/12/15 14:23:38;;;;;;;88.85;59.67;;;14.80;54.60;;;;;;4913889;28;91720;-51
2022/12/15 14:26:12;;;;;;;88.22;60.00;;;14.80;54.80;;;;;;4926748;28;90224;-53
2022/12/15 14:28:40;;;;;;;89.30;61.08;;;14.90;55.10;;;;;;4920280;28;90474;-53
2022/12/15 14:31:20;;;;;;;89.15;60.95;;;14.90;54.00;;;;;;4916497;28;93501;-48
2022/12/15 14:33:50;;;;;;;87.50;60.03;;;14.80;54.30;;;;;;4923942;28;90117;-52
2022/12/15 14:36:18;;;;;;;83.88;58.63;;;14.70;54.30;;;;;;4926316;28;96062;-50
2022/12/15 14:38:55;;;;;;;86.28;58.63;;;14.70;54.40;;;;;;4919416;28;94152;-49
2022/12/15 14:41:22;;;;;;;86.50;59.25;;;14.60;54.10;;;;;;4921466;28;90957;-48
2022/12/15 14:43:50;;;;;;;83.70;59.88;;;14.60;54.30;;;;;;4918221;28;91582;-50
2022/12/15 14:46:23;;;;;;;89.70;59.65;;;14.60;54.50;;;;;;4934461;28;89883;-47
2022/12/15 14:49:03;;;;;;;86.47;59.63;;;14.60;54.30;;;;;;4928823;28;91642;-49
2022/12/15 14:51:31;;;;;;;88.38;59.58;;;14.50;54.30;;;;;;4914159;28;91013;-49
2022/12/15 14:53:56;;;;;;;88.13;60.35;;;14.50;54.50;;;;;;4927150;28;90382;-49
2022/12/15 14:56:31;;;;;;;86.38;59.60;;;14.50;54.40;;;;;;4920116;28;89696;-48
2022/12/15 14:59:04;;;;;;;88.45;60.63;;;14.50;54.20;;;;;;4931060;28;90402;-48
2022/12/15 15:01:40;;;;;;;85.65;59.00;;;14.60;54.20;;;;;;4936623;28;89819;-48
2022/12/15 15:04:31;;;;;;;83.72;58.20;;;14.60;54.10;;;;;;4932045;28;91576;-50
2022/12/15 15:07:06;;;;;;;82.18;58.28;;;14.60;54.00;;;;;;4920740;28;89895;-48
2022/12/15 15:09:37;;;;;;;83.75;58.92;;;14.60;53.90;;;;;;4929250;28;92196;-52
2022/12/15 15:12:17;;;;;;;83.18;59.63;;;14.60;53.90;;;;;;4925360;28;90831;-48
2022/12/15 15:15:07;;;;;;;84.88;59.53;;;14.60;53.70;;;;;;4930343;28;90321;-51
2022/12/15 15:17:42;;;;;;;82.00;59.10;;;14.60;53.70;;;;;;4929204;28;90176;-49